Camelford, United Kingdom
Current Conditions -  °F | °C
As of 2:20 PM on Monday 20 Oct 2014 (Local Time) from EGHQ Reporting Station
Broken Clouds Broken Clouds  
Wind Chill: 57°   Ceiling: 4400
Heat Index: 57°   Visibility: 6mi
Dew Point: 50°   Wind: 16mph
Humidity: 77%   Direction: 240°WSW
Pressure: 30.03"   Gusts: NA
Location:  50.62°N, 4.68°W
Report Text: EGHQ 201320Z 24014KT 9999 FEW016 BKN044 14/10 Q1017
Loading
Personal Weather Stations






























Interactive Weather Map
Tropical Storm Tracking
New forecast layout! Learn more

10-Day Weather Forecast

Advertisements
Track Severe Weather on mobile